createdAt,value
2022-08-06T00:01:05.131Z,25.00
2022-08-06T00:03:31.716Z,25.00
2022-08-06T00:05:58.593Z,25.00
2022-08-06T00:08:29.726Z,24.90
2022-08-06T00:10:56.286Z,25.00
2022-08-06T00:13:22.803Z,25.00
2022-08-06T00:16:09.634Z,25.00
2022-08-06T00:18:36.554Z,24.90
2022-08-06T00:21:12.296Z,25.00
2022-08-06T00:23:52.461Z,24.90
2022-08-06T00:26:21.961Z,25.00
2022-08-06T00:28:55.399Z,24.90
2022-08-06T00:31:21.943Z,24.90
2022-08-06T00:33:56.871Z,24.90
2022-08-06T00:36:25.168Z,24.90
2022-08-06T00:38:54.825Z,24.90
2022-08-06T00:41:22.344Z,24.90
2022-08-06T00:43:48.981Z,24.90
2022-08-06T00:46:16.059Z,24.90
2022-08-06T00:48:53.351Z,24.90
2022-08-06T00:51:21.222Z,24.90
2022-08-06T00:53:48.274Z,24.90
2022-08-06T00:56:15.072Z,24.90
2022-08-06T00:58:41.939Z,24.90
2022-08-06T01:01:17.360Z,24.90
2022-08-06T01:03:52.006Z,24.80
2022-08-06T01:06:54.999Z,24.80
2022-08-06T01:09:05.724Z,24.80
2022-08-06T01:11:34.879Z,24.80
2022-08-06T01:14:06.062Z,24.80
2022-08-06T01:16:36.059Z,24.70
2022-08-06T01:19:11.577Z,24.70
2022-08-06T01:22:00.914Z,24.70
2022-08-06T01:24:34.596Z,24.70
2022-08-06T01:27:01.141Z,24.70
2022-08-06T01:29:35.080Z,24.70
2022-08-06T01:32:03.044Z,24.60
2022-08-06T01:34:35.246Z,24.60
2022-08-06T01:37:03.188Z,24.60
2022-08-06T01:39:53.505Z,24.60
2022-08-06T01:42:16.201Z,24.60
2022-08-06T01:45:01.195Z,24.60
2022-08-06T01:47:27.728Z,24.60
2022-08-06T01:50:14.546Z,24.60
2022-08-06T01:52:41.269Z,24.60
2022-08-06T01:55:09.852Z,24.60
2022-08-06T01:58:08.516Z,24.70
2022-08-06T02:00:29.663Z,24.60
2022-08-06T02:02:56.474Z,24.60
2022-08-06T02:05:23.860Z,24.50
2022-08-06T02:08:39.113Z,24.50
2022-08-06T02:10:45.012Z,24.50
2022-08-06T02:13:11.623Z,24.50
2022-08-06T02:15:58.294Z,24.50
2022-08-06T02:18:35.540Z,24.50
2022-08-06T02:21:13.641Z,24.50
2022-08-06T02:23:45.791Z,24.50
2022-08-06T02:26:12.593Z,24.40
2022-08-06T02:28:39.203Z,24.50
2022-08-06T02:31:06.373Z,24.60
2022-08-06T02:34:03.225Z,24.50
2022-08-06T02:36:26.543Z,24.40
2022-08-06T02:38:55.026Z,24.40
2022-08-06T02:41:21.788Z,24.40
2022-08-06T02:43:48.443Z,24.40
2022-08-06T02:46:17.692Z,24.50
2022-08-06T02:48:47.186Z,24.50
2022-08-06T02:51:29.415Z,24.50
2022-08-06T02:54:04.388Z,24.40
2022-08-06T02:56:31.980Z,24.40
2022-08-06T02:58:58.886Z,24.40
2022-08-06T03:01:26.987Z,24.40
2022-08-06T03:03:53.871Z,24.40
2022-08-06T03:06:22.819Z,24.40
2022-08-06T03:08:53.198Z,24.40
2022-08-06T03:11:20.533Z,24.40
2022-08-06T03:13:47.724Z,24.50
2022-08-06T03:16:23.762Z,24.40
2022-08-06T03:19:57.115Z,24.50
2022-08-06T03:21:39.865Z,24.60
2022-08-06T03:24:06.408Z,24.50
2022-08-06T03:26:33.443Z,24.50
2022-08-06T03:29:00.029Z,24.50
2022-08-06T03:31:26.556Z,24.50
2022-08-06T03:34:03.760Z,24.50
2022-08-06T03:36:30.326Z,24.50
2022-08-06T03:38:57.038Z,24.50
2022-08-06T03:41:23.603Z,24.50
2022-08-06T03:44:03.988Z,24.50
2022-08-06T03:46:31.422Z,24.50
2022-08-06T03:48:57.939Z,24.50
2022-08-06T03:51:50.531Z,24.50
2022-08-06T03:54:10.962Z,24.40
2022-08-06T03:56:40.512Z,24.40
2022-08-06T03:59:08.092Z,24.50
2022-08-06T04:01:34.671Z,24.50
2022-08-06T04:04:01.236Z,24.50
2022-08-06T04:06:47.735Z,24.40
2022-08-06T04:09:33.346Z,24.40
2022-08-06T04:12:36.574Z,24.40
2022-08-06T04:14:51.667Z,24.40
2022-08-06T04:17:18.189Z,24.30
2022-08-06T04:19:48.193Z,24.40
2022-08-06T04:23:00.071Z,24.40
2022-08-06T04:25:01.237Z,24.40
2022-08-06T04:27:30.723Z,24.30
2022-08-06T04:29:59.654Z,24.30
2022-08-06T04:32:29.689Z,24.40
2022-08-06T04:36:05.432Z,24.40
2022-08-06T04:37:45.130Z,24.40
2022-08-06T04:40:27.615Z,24.40
2022-08-06T04:43:01.925Z,24.40
2022-08-06T04:46:16.507Z,24.40
2022-08-06T04:48:16.881Z,24.40
2022-08-06T04:50:47.767Z,24.40
2022-08-06T04:53:14.282Z,24.50
2022-08-06T04:56:03.712Z,24.60
2022-08-06T04:58:33.035Z,24.60
2022-08-06T05:01:10.333Z,24.60
2022-08-06T05:04:05.928Z,24.70
2022-08-06T05:06:24.335Z,24.70
2022-08-06T05:08:52.210Z,24.70
2022-08-06T05:11:19.388Z,24.70
2022-08-06T05:13:51.998Z,24.80
2022-08-06T05:16:18.683Z,24.90
2022-08-06T05:19:21.563Z,24.90
2022-08-06T05:22:05.066Z,24.80
2022-08-06T05:24:18.930Z,24.80
2022-08-06T05:26:45.459Z,24.80
2022-08-06T05:29:15.296Z,24.80
2022-08-06T05:31:46.259Z,24.70
2022-08-06T05:34:13.641Z,24.90
2022-08-06T05:36:40.180Z,24.90
2022-08-06T05:39:10.480Z,24.90
2022-08-06T05:41:59.871Z,24.80
2022-08-06T05:44:29.522Z,24.90
2022-08-06T05:46:56.514Z,24.80
2022-08-06T05:49:56.034Z,24.90
2022-08-06T05:52:11.464Z,24.80
2022-08-06T05:54:42.327Z,24.60
2022-08-06T05:57:09.301Z,24.70
2022-08-06T05:59:38.568Z,24.70
2022-08-06T06:02:22.488Z,24.60
2022-08-06T06:06:02.358Z,24.50
2022-08-06T06:08:10.299Z,24.50
2022-08-06T06:10:28.143Z,24.60
2022-08-06T06:12:54.718Z,24.60
2022-08-06T06:16:01.589Z,24.60
2022-08-06T06:18:08.586Z,24.60
2022-08-06T06:20:57.904Z,24.60
2022-08-06T06:23:25.627Z,24.60
2022-08-06T06:25:55.949Z,24.60
2022-08-06T06:28:28.485Z,24.70
2022-08-06T06:31:02.268Z,24.60
2022-08-06T06:33:36.993Z,24.60
2022-08-06T06:36:08.422Z,24.60
2022-08-06T06:38:36.989Z,24.50
2022-08-06T06:41:21.032Z,24.60
2022-08-06T06:43:47.912Z,24.60
2022-08-06T06:46:37.020Z,24.60
2022-08-06T06:49:05.917Z,24.70
2022-08-06T06:51:57.310Z,24.70
2022-08-06T06:54:23.167Z,24.60
2022-08-06T06:57:04.563Z,24.60
2022-08-06T06:59:35.370Z,24.70
2022-08-06T07:02:23.858Z,24.70
2022-08-06T07:04:54.481Z,24.60
2022-08-06T07:07:26.248Z,24.60
2022-08-06T07:09:53.405Z,24.60
2022-08-06T07:12:30.976Z,24.70
2022-08-06T07:15:01.309Z,24.70
2022-08-06T07:17:45.380Z,24.60
2022-08-06T07:20:14.616Z,24.50
2022-08-06T07:24:03.681Z,24.70
2022-08-06T07:25:30.621Z,24.60
2022-08-06T07:27:57.198Z,24.60
2022-08-06T07:30:28.836Z,24.70
2022-08-06T07:32:55.595Z,24.60
2022-08-06T07:35:22.108Z,24.60
2022-08-06T07:37:48.631Z,24.60
2022-08-06T07:40:15.659Z,24.60
2022-08-06T07:42:43.511Z,24.60
2022-08-06T07:45:16.429Z,24.70
2022-08-06T07:47:54.339Z,24.70
2022-08-06T07:50:23.542Z,24.70
2022-08-06T07:52:50.559Z,24.70
2022-08-06T07:55:17.416Z,24.60
2022-08-06T07:57:54.990Z,24.60
2022-08-06T08:00:22.785Z,24.60
2022-08-06T08:02:49.338Z,24.70
2022-08-06T08:05:16.672Z,24.80
2022-08-06T08:07:57.363Z,24.80
2022-08-06T08:10:29.023Z,24.70
2022-08-06T08:12:56.217Z,24.70
2022-08-06T08:15:23.034Z,24.70
2022-08-06T08:17:56.399Z,24.70
2022-08-06T08:20:25.111Z,24.70
2022-08-06T08:23:00.369Z,24.70
2022-08-06T08:25:40.142Z,24.70
2022-08-06T08:28:11.846Z,24.70
2022-08-06T08:30:38.895Z,24.80
2022-08-06T08:33:11.160Z,24.70
2022-08-06T08:35:38.762Z,24.70
2022-08-06T08:38:05.309Z,24.70
2022-08-06T08:40:35.213Z,24.70
2022-08-06T08:43:06.435Z,24.80
2022-08-06T08:45:33.662Z,24.80
2022-08-06T08:48:00.590Z,24.80
2022-08-06T08:50:30.060Z,24.70
2022-08-06T08:52:56.582Z,24.80
2022-08-06T08:57:10.263Z,24.80
2022-08-06T08:58:40.867Z,24.80
2022-08-06T09:00:56.124Z,24.80
2022-08-06T09:03:22.873Z,24.90
2022-08-06T09:05:49.620Z,24.80
2022-08-06T09:08:47.218Z,24.80
2022-08-06T09:11:12.001Z,24.70
2022-08-06T09:13:52.782Z,24.80
2022-08-06T09:16:31.651Z,24.80
2022-08-06T09:18:59.520Z,24.90
2022-08-06T09:21:26.178Z,24.90
2022-08-06T09:23:58.525Z,24.80
2022-08-06T09:26:53.735Z,24.90
2022-08-06T09:29:23.690Z,24.80
2022-08-06T09:31:58.312Z,24.90
2022-08-06T09:34:32.820Z,24.90
2022-08-06T09:37:05.964Z,24.90
2022-08-06T09:39:59.609Z,24.90
2022-08-06T09:42:19.595Z,24.80
2022-08-06T09:44:52.825Z,24.90
2022-08-06T09:47:22.272Z,24.90
2022-08-06T09:49:59.955Z,24.90
2022-08-06T09:52:27.421Z,25.00
2022-08-06T09:54:54.532Z,25.00
2022-08-06T09:57:22.902Z,25.00
2022-08-06T09:59:50.627Z,25.00
2022-08-06T10:02:17.329Z,25.00
2022-08-06T10:04:50.752Z,25.00
2022-08-06T10:07:18.228Z,25.00
2022-08-06T10:09:45.320Z,25.00
2022-08-06T10:12:11.917Z,25.00
2022-08-06T10:14:38.873Z,25.10
2022-08-06T10:17:05.512Z,25.10
2022-08-06T10:19:36.205Z,25.10
2022-08-06T10:22:03.633Z,25.10
2022-08-06T10:24:42.033Z,25.10
2022-08-06T10:27:16.477Z,25.10
2022-08-06T10:29:42.984Z,25.10
2022-08-06T10:32:12.188Z,25.10
2022-08-06T10:34:38.993Z,25.10
2022-08-06T10:37:07.877Z,25.10
2022-08-06T10:40:07.405Z,25.10
2022-08-06T10:42:36.805Z,25.10
2022-08-06T10:45:12.483Z,25.20
2022-08-06T10:48:59.029Z,25.20
2022-08-06T10:50:38.313Z,25.10
2022-08-06T10:53:11.518Z,25.20
2022-08-06T10:55:58.029Z,25.20
2022-08-06T10:58:24.559Z,25.20
2022-08-06T11:00:56.271Z,25.20
2022-08-06T11:03:23.828Z,25.20
2022-08-06T11:05:54.011Z,25.20
2022-08-06T11:08:40.630Z,25.20
2022-08-06T11:11:19.652Z,25.10
2022-08-06T11:13:52.488Z,25.00
2022-08-06T11:16:20.310Z,25.00
2022-08-06T11:18:54.533Z,25.10
2022-08-06T11:21:21.578Z,25.00
2022-08-06T11:23:58.440Z,25.10
2022-08-06T11:26:27.726Z,25.10
2022-08-06T11:28:54.536Z,25.10
2022-08-06T11:31:21.403Z,25.10
2022-08-06T11:33:48.167Z,25.10
2022-08-06T11:36:17.946Z,25.20
2022-08-06T11:38:44.549Z,25.20
2022-08-06T11:41:50.225Z,25.20
2022-08-06T11:44:04.510Z,25.20
2022-08-06T11:46:35.891Z,25.20
2022-08-06T11:49:03.337Z,25.20
2022-08-06T11:51:34.212Z,25.20
2022-08-06T11:54:09.432Z,25.20
2022-08-06T11:56:35.991Z,25.20
2022-08-06T11:59:02.511Z,25.20
2022-08-06T12:01:33.361Z,25.20
2022-08-06T12:04:01.503Z,25.20
2022-08-06T12:06:29.226Z,25.30
2022-08-06T12:08:56.235Z,25.30
2022-08-06T12:11:23.705Z,25.30
2022-08-06T12:13:57.689Z,25.30
2022-08-06T12:16:37.791Z,25.30
2022-08-06T12:19:04.332Z,25.30
2022-08-06T12:21:36.942Z,25.30
2022-08-06T12:24:04.488Z,25.30
2022-08-06T12:26:33.284Z,25.30
2022-08-06T12:29:00.357Z,25.30
2022-08-06T12:31:35.645Z,25.30
2022-08-06T12:34:05.571Z,25.30
2022-08-06T12:36:35.236Z,25.30
2022-08-06T12:39:04.039Z,25.30
2022-08-06T12:41:46.768Z,25.30
2022-08-06T12:44:13.863Z,25.30
2022-08-06T12:46:41.376Z,25.30
2022-08-06T12:49:09.884Z,25.30
2022-08-06T12:51:36.841Z,25.30
2022-08-06T12:54:03.392Z,25.30
2022-08-06T12:56:32.050Z,25.30
2022-08-06T12:58:59.935Z,25.30
2022-08-06T13:02:07.811Z,25.30
2022-08-06T13:04:16.619Z,25.30
2022-08-06T13:06:43.894Z,25.30
2022-08-06T13:09:11.726Z,25.30
2022-08-06T13:11:41.597Z,25.30
2022-08-06T13:14:17.314Z,25.30
2022-08-06T13:16:54.231Z,25.30
2022-08-06T13:19:32.941Z,25.30
2022-08-06T13:22:06.104Z,25.30
2022-08-06T13:24:34.391Z,25.30
2022-08-06T13:27:02.840Z,25.30
2022-08-06T13:30:30.986Z,25.30
2022-08-06T13:32:27.235Z,25.40
2022-08-06T13:35:00.457Z,25.30
2022-08-06T13:37:27.057Z,25.40
2022-08-06T13:40:05.533Z,25.40
2022-08-06T13:42:35.448Z,25.40
2022-08-06T13:45:03.012Z,25.40
2022-08-06T13:47:58.002Z,25.40
2022-08-06T13:50:26.997Z,25.30
2022-08-06T13:52:54.849Z,25.30
2022-08-06T13:55:27.423Z,25.30
2022-08-06T13:58:13.920Z,25.30
2022-08-06T14:00:41.702Z,25.30
2022-08-06T14:03:13.970Z,25.30
2022-08-06T14:05:40.660Z,25.30
2022-08-06T14:08:26.659Z,25.30
2022-08-06T14:11:00.697Z,25.30
2022-08-06T14:13:27.316Z,25.40
2022-08-06T14:15:53.841Z,25.40
2022-08-06T14:18:20.353Z,25.40
2022-08-06T14:20:46.920Z,25.40
2022-08-06T14:23:13.617Z,25.50
2022-08-06T14:25:59.990Z,25.50
2022-08-06T14:28:26.623Z,25.50
2022-08-06T14:30:53.167Z,25.50
2022-08-06T14:33:26.168Z,25.50
2022-08-06T14:35:53.372Z,25.50
2022-08-06T14:38:19.902Z,25.50
2022-08-06T14:41:02.776Z,25.50
2022-08-06T14:43:31.962Z,25.50
2022-08-06T14:46:00.299Z,25.50
2022-08-06T14:48:31.349Z,25.50
2022-08-06T14:50:58.042Z,25.50
2022-08-06T14:53:24.817Z,25.50
2022-08-06T14:56:06.939Z,25.50
2022-08-06T14:58:34.929Z,25.50
2022-08-06T15:01:01.473Z,25.50
2022-08-06T15:03:33.287Z,25.50
2022-08-06T15:06:05.887Z,25.50
2022-08-06T15:08:33.156Z,25.50
2022-08-06T15:11:05.771Z,25.50
2022-08-06T15:13:37.029Z,25.50
2022-08-06T15:16:22.212Z,25.50
2022-08-06T15:19:10.388Z,25.50
2022-08-06T15:21:39.691Z,25.60
2022-08-06T15:24:18.111Z,25.60
2022-08-06T15:26:48.556Z,25.60
2022-08-06T15:29:16.461Z,25.60
2022-08-06T15:31:43.220Z,25.60
2022-08-06T15:34:12.603Z,25.60
2022-08-06T15:36:40.052Z,25.60
2022-08-06T15:39:51.680Z,25.60
2022-08-06T15:42:13.057Z,25.60
2022-08-06T15:44:41.527Z,25.60
2022-08-06T15:47:08.784Z,25.60
2022-08-06T15:50:00.857Z,25.60
2022-08-06T15:52:21.861Z,25.50
2022-08-06T15:54:52.912Z,25.50
2022-08-06T15:57:19.596Z,25.50
2022-08-06T16:00:17.538Z,25.50
2022-08-06T16:02:50.444Z,25.50
2022-08-06T16:05:32.756Z,25.40
2022-08-06T16:08:03.975Z,25.40
2022-08-06T16:10:33.389Z,25.40
2022-08-06T16:13:00.081Z,25.40
2022-08-06T16:15:26.639Z,25.40
2022-08-06T16:18:09.899Z,25.30
2022-08-06T16:20:39.909Z,25.30
2022-08-06T16:23:12.069Z,25.40
2022-08-06T16:26:15.371Z,25.30
2022-08-06T16:28:40.088Z,25.30
2022-08-06T16:31:15.643Z,25.30
2022-08-06T16:33:54.841Z,25.30
2022-08-06T16:36:32.525Z,25.30
2022-08-06T16:38:59.744Z,25.30
2022-08-06T16:41:26.296Z,25.30
2022-08-06T16:44:12.789Z,25.30
2022-08-06T16:46:43.387Z,25.30
2022-08-06T16:49:10.219Z,25.30
2022-08-06T16:52:41.921Z,25.30
2022-08-06T16:54:33.621Z,25.30
2022-08-06T16:57:00.362Z,25.30
2022-08-06T16:59:42.380Z,25.30
2022-08-06T17:02:19.803Z,25.30
2022-08-06T17:04:48.258Z,25.30
2022-08-06T17:07:15.439Z,25.30
2022-08-06T17:12:28.485Z,25.30
2022-08-06T17:14:54.998Z,25.30
2022-08-06T17:17:23.907Z,25.30
2022-08-06T17:20:03.731Z,25.30
2022-08-06T17:22:30.915Z,25.30
2022-08-06T17:24:57.533Z,25.30
2022-08-06T17:27:43.521Z,25.30
2022-08-06T17:30:10.568Z,25.40
2022-08-06T17:32:46.249Z,25.40
2022-08-06T17:35:14.035Z,25.30
2022-08-06T17:37:43.838Z,25.30
2022-08-06T17:42:57.907Z,25.30
2022-08-06T17:45:24.431Z,25.30
2022-08-06T17:47:51.538Z,25.30
2022-08-06T17:50:18.749Z,25.30
2022-08-06T17:52:47.653Z,25.30
2022-08-06T17:55:14.395Z,25.30
2022-08-06T17:58:32.902Z,25.30
2022-08-06T18:00:33.151Z,25.20
2022-08-06T18:03:01.712Z,25.20
2022-08-06T18:05:36.003Z,25.20
2022-08-06T18:08:15.210Z,25.20
2022-08-06T18:10:48.235Z,25.20
2022-08-06T18:13:14.778Z,25.20
2022-08-06T18:15:47.284Z,25.20
2022-08-06T18:18:19.401Z,25.20
2022-08-06T18:20:46.343Z,25.20
2022-08-06T18:23:21.675Z,25.20
2022-08-06T18:25:55.772Z,25.20
2022-08-06T18:28:31.893Z,25.20
2022-08-06T18:31:04.635Z,25.10
2022-08-06T18:33:31.413Z,25.00
2022-08-06T18:35:58.988Z,25.00
2022-08-06T18:38:31.276Z,25.00
2022-08-06T18:41:01.139Z,24.90
2022-08-06T18:43:53.681Z,24.90
2022-08-06T18:46:55.727Z,25.00
2022-08-06T18:49:05.973Z,25.00
2022-08-06T18:51:33.912Z,25.00
2022-08-06T18:54:05.407Z,25.00
2022-08-06T18:56:32.420Z,25.00
2022-08-06T18:58:58.949Z,25.00
2022-08-06T19:01:25.524Z,25.10
2022-08-06T19:03:52.157Z,25.10
2022-08-06T19:06:29.373Z,25.10
2022-08-06T19:08:56.359Z,25.10
2022-08-06T19:11:24.789Z,25.10
2022-08-06T19:14:18.832Z,25.00
2022-08-06T19:16:49.962Z,25.00
2022-08-06T19:19:17.259Z,25.00
2022-08-06T19:21:51.229Z,25.00
2022-08-06T19:24:35.178Z,25.00
2022-08-06T19:27:02.694Z,25.00
2022-08-06T19:30:02.186Z,24.90
2022-08-06T19:32:28.295Z,25.00
2022-08-06T19:34:55.819Z,25.00
2022-08-06T19:37:58.782Z,25.00
2022-08-06T19:40:08.881Z,25.00
2022-08-06T19:42:36.166Z,25.00
2022-08-06T19:45:04.463Z,25.00
2022-08-06T19:47:43.448Z,25.00
2022-08-06T19:50:14.486Z,25.00
2022-08-06T19:52:46.932Z,24.90
2022-08-06T19:56:05.946Z,24.90
2022-08-06T19:58:00.139Z,25.00
2022-08-06T20:00:52.914Z,24.90
2022-08-06T20:03:13.182Z,24.90
2022-08-06T20:06:20.423Z,24.90
2022-08-06T20:08:31.884Z,24.90
2022-08-06T20:10:59.940Z,24.90
2022-08-06T20:13:26.498Z,24.90
2022-08-06T20:15:54.375Z,24.90
2022-08-06T20:18:20.895Z,24.90
2022-08-06T20:20:48.048Z,24.80
2022-08-06T20:23:17.936Z,24.80
2022-08-06T20:26:08.878Z,24.90
2022-08-06T20:29:10.606Z,24.80
2022-08-06T20:31:18.675Z,24.80
2022-08-06T20:33:58.867Z,24.80
2022-08-06T20:36:28.045Z,24.80
2022-08-06T20:38:54.723Z,24.80
2022-08-06T20:41:56.633Z,24.80
2022-08-06T20:44:08.758Z,24.80
2022-08-06T20:49:47.963Z,24.90
2022-08-06T20:52:08.456Z,24.80
2022-08-06T20:54:38.615Z,24.80
2022-08-06T20:57:05.203Z,24.80
2022-08-06T20:59:33.640Z,24.80
2022-08-06T21:02:08.649Z,24.90
2022-08-06T21:05:16.037Z,24.90
2022-08-06T21:07:37.132Z,24.90
2022-08-06T21:10:11.260Z,24.90
2022-08-06T21:12:44.795Z,24.80
2022-08-06T21:15:12.208Z,24.80
2022-08-06T21:17:59.302Z,24.70
2022-08-06T21:20:25.902Z,24.70
2022-08-06T21:22:52.707Z,24.70
2022-08-06T21:25:19.234Z,24.70
2022-08-06T21:27:48.629Z,24.60
2022-08-06T21:30:15.408Z,24.60
2022-08-06T21:32:56.705Z,24.60
2022-08-06T21:35:24.808Z,24.60
2022-08-06T21:37:59.928Z,24.50
2022-08-06T21:40:29.059Z,24.50
2022-08-06T21:42:59.714Z,24.50
2022-08-06T21:45:26.250Z,24.60
2022-08-06T21:48:12.744Z,24.60
2022-08-06T21:50:42.189Z,24.50
2022-08-06T21:53:48.991Z,24.60
2022-08-06T21:56:38.931Z,24.60
2022-08-06T21:58:47.904Z,24.50
2022-08-06T22:01:14.416Z,24.60
2022-08-06T22:04:37.419Z,24.50
2022-08-06T22:06:39.003Z,24.50
2022-08-06T22:09:05.747Z,24.50
2022-08-06T22:12:37.307Z,24.60
2022-08-06T22:14:28.847Z,24.60
2022-08-06T22:17:02.761Z,24.60
2022-08-06T22:19:34.484Z,24.50
2022-08-06T22:22:07.645Z,24.60
2022-08-06T22:24:34.499Z,24.60
2022-08-06T22:27:01.023Z,24.50
2022-08-06T22:29:27.971Z,24.50
2022-08-06T22:31:59.701Z,24.50
2022-08-06T22:34:37.457Z,24.50
2022-08-06T22:37:04.481Z,24.50
2022-08-06T22:39:34.663Z,24.50
2022-08-06T22:42:07.658Z,24.50
2022-08-06T22:44:57.293Z,24.40
2022-08-06T22:47:20.976Z,24.40
2022-08-06T22:50:01.207Z,24.40
2022-08-06T22:52:51.466Z,24.50
2022-08-06T22:55:18.133Z,24.40
2022-08-06T22:59:02.103Z,24.40
2022-08-06T23:00:31.659Z,24.40
2022-08-06T23:03:00.449Z,24.40
2022-08-06T23:05:30.898Z,24.40
2022-08-06T23:07:58.423Z,24.40
2022-08-06T23:10:26.525Z,24.40
2022-08-06T23:12:53.055Z,24.40
2022-08-06T23:15:30.056Z,24.40
2022-08-06T23:18:08.218Z,24.40
2022-08-06T23:20:36.410Z,24.40
2022-08-06T23:23:02.924Z,24.40
2022-08-06T23:26:02.605Z,24.40
2022-08-06T23:28:17.806Z,24.40
2022-08-06T23:30:44.412Z,24.40
2022-08-06T23:33:10.925Z,24.30
2022-08-06T23:35:38.131Z,24.30
2022-08-06T23:38:08.103Z,24.40
2022-08-06T23:40:51.686Z,24.40
2022-08-06T23:43:19.341Z,24.30
2022-08-06T23:45:47.407Z,24.40
2022-08-06T23:48:14.771Z,24.30
2022-08-06T23:50:50.682Z,24.30
2022-08-06T23:54:06.897Z,24.30
2022-08-06T23:56:06.451Z,24.30
2022-08-06T23:58:36.101Z,24.30
